Time;durP1;ratioP1;P1;durP2;ratioP2;P2;SDS_P1;SDS_P2;PMS_P1;PMS_P2;Temp;Humidity;BMP_temperature;BMP_pressure;BME280_temperature;BME280_humidity;BME280_pressure;Samples;Min_cycle;Max_cycle;Signal;HPM_P1;HPM_P2
2021/05/20 00:01:46;;;;;;;3.47;2.55;;;14.10;61.30;;;;;;5013657;28;20037;-68
2021/05/20 00:04:12;;;;;;;2.08;1.80;;;14.10;60.90;;;;;;5012201;28;20080;-68
2021/05/20 00:06:38;;;;;;;3.92;1.98;;;14.20;61.00;;;;;;5013606;28;20056;-68
2021/05/20 00:09:05;;;;;;;6.43;1.70;;;14.20;61.00;;;;;;5013213;28;20168;-68
2021/05/20 00:11:32;;;;;;;2.75;2.22;;;14.20;61.00;;;;;;5013726;28;20383;-68
2021/05/20 00:13:57;;;;;;;4.65;2.50;;;14.20;60.90;;;;;;5013264;28;20036;-68
2021/05/20 00:16:23;;;;;;;2.83;2.50;;;14.20;60.80;;;;;;5021863;28;20025;-68
2021/05/20 00:18:49;;;;;;;2.78;2.45;;;14.20;60.70;;;;;;5017933;28;20042;-68
2021/05/20 00:21:15;;;;;;;3.90;3.33;;;14.20;60.70;;;;;;5022599;28;20104;-68
2021/05/20 00:23:40;;;;;;;3.13;2.53;;;14.20;60.50;;;;;;5020531;28;20440;-68
2021/05/20 00:26:07;;;;;;;4.00;2.30;;;14.10;60.50;;;;;;5017825;28;20022;-68
2021/05/20 00:28:33;;;;;;;3.25;2.63;;;14.10;60.60;;;;;;5040360;28;20033;-68
2021/05/20 00:30:59;;;;;;;1.92;1.70;;;14.00;60.60;;;;;;5033260;28;20390;-68
2021/05/20 00:33:26;;;;;;;2.83;1.90;;;14.00;60.80;;;;;;5029059;28;20072;-68
2021/05/20 00:35:52;;;;;;;2.70;1.75;;;14.00;60.80;;;;;;5030581;28;20391;-68
2021/05/20 00:38:18;;;;;;;3.10;1.80;;;14.00;60.70;;;;;;5032669;28;20030;-68
2021/05/20 00:40:44;;;;;;;2.05;1.70;;;14.00;60.70;;;;;;5019106;28;20060;-68
2021/05/20 00:43:09;;;;;;;1.73;1.23;;;14.00;60.70;;;;;;5031981;28;20037;-68
2021/05/20 00:45:35;;;;;;;2.08;1.30;;;14.00;60.70;;;;;;5032697;28;20036;-68
2021/05/20 00:48:01;;;;;;;1.00;0.95;;;13.90;60.30;;;;;;5013641;28;20030;-68
2021/05/20 00:50:27;;;;;;;0.73;0.70;;;13.90;60.20;;;;;;5012866;28;20479;-68
2021/05/20 00:52:52;;;;;;;1.15;1.00;;;13.90;60.00;;;;;;5012789;28;20387;-68
2021/05/20 00:55:20;;;;;;;1.35;0.88;;;13.90;59.90;;;;;;5012736;28;20379;-68
2021/05/20 00:57:47;;;;;;;1.17;0.80;;;13.80;59.90;;;;;;5012455;28;20408;-68
2021/05/20 01:00:14;;;;;;;0.90;0.70;;;13.80;59.70;;;;;;5012706;28;20026;-68
2021/05/20 01:02:41;;;;;;;1.70;0.95;;;13.80;59.70;;;;;;5012365;28;20034;-68
2021/05/20 01:05:13;;;;;;;2.55;1.00;;;13.80;59.60;;;;;;5012566;28;20472;-68
2021/05/20 01:07:39;;;;;;;1.05;0.85;;;13.80;59.60;;;;;;5012228;28;20049;-68
2021/05/20 01:10:06;;;;;;;1.30;1.00;;;13.80;59.80;;;;;;5012336;28;20030;-68
2021/05/20 01:12:33;;;;;;;1.95;1.08;;;13.80;59.80;;;;;;5011045;28;20117;-68
2021/05/20 01:14:59;;;;;;;0.70;0.70;;;13.80;59.90;;;;;;5012344;28;20025;-68
2021/05/20 01:17:25;;;;;;;1.20;1.00;;;13.80;59.80;;;;;;5012383;28;20029;-68
2021/05/20 01:19:51;;;;;;;1.30;0.80;;;13.80;59.80;;;;;;5021050;28;20044;-68
2021/05/20 01:22:18;;;;;;;1.05;0.60;;;13.80;59.90;;;;;;5017617;28;20386;-68
2021/05/20 01:24:45;;;;;;;0.80;0.45;;;13.90;60.00;;;;;;5032063;28;20033;-68
2021/05/20 01:27:12;;;;;;;0.90;0.70;;;13.90;60.00;;;;;;5025358;28;20061;-68
2021/05/20 01:29:43;;;;;;;0.50;0.50;;;13.90;59.90;;;;;;5031907;28;20454;-68
2021/05/20 01:32:10;;;;;;;2.70;0.52;;;13.80;59.70;;;;;;5017923;28;20030;-68
2021/05/20 01:34:36;;;;;;;0.43;0.40;;;13.80;59.80;;;;;;5012070;28;20471;-68
2021/05/20 01:37:04;;;;;;;2.80;0.85;;;13.80;59.50;;;;;;5016431;28;20028;-68
2021/05/20 01:39:30;;;;;;;0.47;0.43;;;13.80;59.50;;;;;;5024181;28;20387;-68
2021/05/20 01:41:55;;;;;;;0.60;0.60;;;13.80;59.50;;;;;;5012044;28;20030;-68
2021/05/20 01:44:22;;;;;;;2.88;0.60;;;13.80;59.60;;;;;;5014404;28;20022;-68
2021/05/20 01:46:48;;;;;;;1.60;1.10;;;13.70;59.40;;;;;;5016145;28;20511;-68
2021/05/20 01:49:14;;;;;;;0.88;0.60;;;13.70;59.50;;;;;;5015984;28;20030;-68
2021/05/20 01:51:41;;;;;;;2.25;0.75;;;13.70;59.60;;;;;;5015978;28;20069;-68
2021/05/20 01:54:07;;;;;;;1.13;0.70;;;13.60;59.70;;;;;;5015811;28;20025;-68
2021/05/20 01:56:36;;;;;;;0.82;0.55;;;13.60;59.70;;;;;;5016064;28;20021;-68
2021/05/20 01:59:11;;;;;;;0.93;0.70;;;13.50;59.80;;;;;;5016011;28;20025;-68
2021/05/20 02:01:37;;;;;;;0.90;0.55;;;13.50;59.80;;;;;;5015731;28;20026;-68
2021/05/20 02:04:03;;;;;;;0.70;0.60;;;13.40;59.90;;;;;;5015803;28;20400;-68
2021/05/20 02:06:29;;;;;;;0.75;0.63;;;13.40;60.10;;;;;;5015625;28;20033;-68
2021/05/20 02:08:55;;;;;;;0.63;0.60;;;13.30;60.30;;;;;;5015542;28;20022;-68
2021/05/20 02:11:21;;;;;;;1.20;0.80;;;13.30;60.70;;;;;;5015705;28;20483;-68
2021/05/20 02:13:46;;;;;;;3.00;0.80;;;13.20;61.00;;;;;;5015468;28;20080;-68
2021/05/20 02:16:12;;;;;;;2.63;0.93;;;13.20;61.20;;;;;;5015574;28;20061;-68
2021/05/20 02:18:38;;;;;;;1.05;0.90;;;13.10;61.30;;;;;;5031419;28;20530;-68
2021/05/20 02:21:05;;;;;;;3.80;0.70;;;13.10;61.40;;;;;;5024287;28;20037;-68
2021/05/20 02:23:31;;;;;;;1.08;0.70;;;13.00;61.50;;;;;;5015474;28;20029;-68
2021/05/20 02:25:57;;;;;;;0.75;0.75;;;13.00;61.60;;;;;;5015486;28;20022;-68
2021/05/20 02:28:23;;;;;;;1.25;0.95;;;13.00;61.80;;;;;;5031816;28;20068;-68
2021/05/20 02:30:49;;;;;;;1.15;1.00;;;13.00;62.00;;;;;;5033261;28;20049;-68
2021/05/20 02:33:15;;;;;;;1.00;0.88;;;13.00;62.10;;;;;;5034928;28;20029;-68
2021/05/20 02:35:41;;;;;;;0.90;0.85;;;13.00;62.00;;;;;;5035110;28;20040;-68
2021/05/20 02:38:06;;;;;;;0.73;0.63;;;13.00;62.10;;;;;;5024014;28;20025;-68
2021/05/20 02:40:33;;;;;;;0.77;0.70;;;13.00;62.10;;;;;;5028511;28;20040;-68
2021/05/20 02:43:00;;;;;;;4.03;0.70;;;13.00;62.20;;;;;;5033955;28;20092;-68
2021/05/20 02:45:26;;;;;;;0.90;0.73;;;13.00;62.20;;;;;;5034546;28;20419;-68
2021/05/20 02:47:53;;;;;;;1.15;0.90;;;13.00;62.30;;;;;;5034529;28;20040;-68
2021/05/20 02:50:19;;;;;;;1.83;1.02;;;13.00;62.50;;;;;;5031646;28;20149;-68
2021/05/20 02:52:46;;;;;;;1.00;0.90;;;13.10;62.40;;;;;;5031147;28;20034;-68
2021/05/20 02:55:17;;;;;;;1.23;0.90;;;13.10;62.50;;;;;;5023731;28;20386;-68
2021/05/20 02:57:46;;;;;;;7.30;1.10;;;13.10;62.30;;;;;;5035596;28;20100;-68
2021/05/20 03:00:13;;;;;;;0.95;0.80;;;13.10;62.30;;;;;;5034991;28;20029;-68
2021/05/20 03:02:39;;;;;;;1.60;0.70;;;13.10;62.10;;;;;;5035468;28;20033;-68
2021/05/20 03:05:06;;;;;;;4.15;0.70;;;13.20;62.10;;;;;;5035461;28;20029;-68
2021/05/20 03:07:34;;;;;;;0.68;0.65;;;13.20;62.00;;;;;;5028234;28;20029;-68
2021/05/20 03:10:02;;;;;;;0.80;0.80;;;13.20;61.90;;;;;;5015563;28;20402;-68
2021/05/20 03:12:28;;;;;;;1.83;0.90;;;13.30;61.90;;;;;;5015468;28;20026;-68
2021/05/20 03:14:54;;;;;;;1.65;1.08;;;13.30;61.70;;;;;;5014003;28;20029;-68
2021/05/20 03:17:20;;;;;;;3.35;1.15;;;13.30;61.60;;;;;;5015413;28;20495;-68
2021/05/20 03:19:45;;;;;;;1.20;1.00;;;13.40;61.50;;;;;;5020716;28;20033;-68
2021/05/20 03:22:11;;;;;;;1.83;1.08;;;13.40;61.20;;;;;;5014713;28;20488;-68
2021/05/20 03:24:37;;;;;;;2.05;1.10;;;13.40;61.10;;;;;;5015189;28;20030;-68
2021/05/20 03:27:03;;;;;;;4.20;1.20;;;13.40;61.20;;;;;;5031601;28;20034;-68
2021/05/20 03:29:29;;;;;;;2.90;1.23;;;13.40;61.30;;;;;;5015372;28;20018;-68
2021/05/20 03:31:55;;;;;;;4.22;2.22;;;13.40;61.40;;;;;;5016582;28;20541;-68
2021/05/20 03:34:20;;;;;;;6.75;2.33;;;13.40;61.50;;;;;;5027177;28;20083;-68
2021/05/20 03:36:46;;;;;;;3.13;1.65;;;13.40;61.80;;;;;;5017262;28;20080;-68
2021/05/20 03:39:15;;;;;;;2.28;1.63;;;13.40;61.60;;;;;;5034440;28;20030;-68
2021/05/20 03:41:41;;;;;;;3.30;1.70;;;13.40;61.70;;;;;;5034558;28;20029;-68
2021/05/20 03:44:07;;;;;;;5.85;2.03;;;13.40;61.60;;;;;;5034463;28;20022;-68
2021/05/20 03:46:33;;;;;;;6.93;2.53;;;13.40;61.70;;;;;;5016751;28;20034;-68
2021/05/20 03:48:58;;;;;;;2.55;1.77;;;13.40;61.90;;;;;;5013389;28;20037;-68
2021/05/20 03:51:24;;;;;;;2.83;2.25;;;13.40;61.90;;;;;;5014572;28;20133;-68
2021/05/20 03:53:50;;;;;;;2.08;1.88;;;13.30;61.90;;;;;;5014547;28;20034;-68
2021/05/20 03:56:16;;;;;;;2.40;2.20;;;13.30;62.20;;;;;;5014661;28;20302;-68
2021/05/20 03:58:42;;;;;;;3.25;2.55;;;13.30;62.50;;;;;;5025613;28;20022;-68
2021/05/20 04:01:08;;;;;;;5.68;2.40;;;13.30;62.70;;;;;;5034298;28;20033;-68
2021/05/20 04:03:33;;;;;;;2.83;2.20;;;13.30;62.70;;;;;;5033232;28;20471;-68
2021/05/20 04:06:01;;;;;;;3.20;2.20;;;13.40;63.00;;;;;;5014093;28;20037;-68
2021/05/20 04:08:27;;;;;;;3.17;2.42;;;13.40;63.00;;;;;;5014237;28;20044;-68
2021/05/20 04:10:53;;;;;;;3.38;1.98;;;13.40;62.90;;;;;;5014248;28;20018;-68
2021/05/20 04:13:39;;;;;;;5.28;2.50;;;13.50;62.80;;;;;;5014374;28;20033;-68
2021/05/20 04:16:07;;;;;;;2.92;2.30;;;13.50;62.70;;;;;;5014368;28;20380;-68
2021/05/20 04:18:33;;;;;;;4.43;2.55;;;13.60;62.60;;;;;;5012884;28;20022;-68
2021/05/20 04:20:59;;;;;;;3.17;2.22;;;13.60;62.50;;;;;;5014551;28;20034;-68
2021/05/20 04:23:26;;;;;;;5.15;2.25;;;13.70;62.40;;;;;;5012767;28;20435;-68
2021/05/20 04:25:52;;;;;;;7.15;2.40;;;13.70;62.30;;;;;;5014070;28;20036;-68
2021/05/20 04:28:19;;;;;;;9.48;2.22;;;13.70;62.20;;;;;;5029908;28;20022;-68
2021/05/20 04:30:45;;;;;;;4.32;2.42;;;13.70;62.20;;;;;;5033733;28;20021;-68
2021/05/20 04:33:12;;;;;;;3.72;2.38;;;13.80;62.20;;;;;;5033659;28;20021;-68
2021/05/20 04:35:38;;;;;;;4.85;2.45;;;13.70;62.10;;;;;;5022629;28;20473;-68
2021/05/20 04:38:06;;;;;;;5.35;2.38;;;13.80;62.00;;;;;;5013751;28;20107;-68
2021/05/20 04:40:33;;;;;;;2.25;1.77;;;13.80;61.80;;;;;;5013749;28;20026;-68
2021/05/20 04:42:59;;;;;;;4.22;2.10;;;13.80;61.80;;;;;;5013794;28;20084;-68
2021/05/20 04:45:25;;;;;;;2.88;2.10;;;13.80;61.70;;;;;;5012494;28;20029;-68
2021/05/20 04:47:51;;;;;;;2.95;1.90;;;13.80;61.70;;;;;;5013344;28;20037;-68
2021/05/20 04:50:18;;;;;;;3.45;1.98;;;13.80;61.70;;;;;;5013964;28;20026;-68
2021/05/20 04:52:44;;;;;;;2.25;1.85;;;13.80;61.40;;;;;;5013548;28;20046;-68
2021/05/20 04:55:11;;;;;;;3.95;1.80;;;13.80;61.30;;;;;;5028723;28;20021;-68
2021/05/20 04:57:38;;;;;;;3.65;1.90;;;13.90;61.40;;;;;;5013458;28;20018;-68
2021/05/20 05:00:06;;;;;;;2.40;1.70;;;13.90;61.30;;;;;;5013383;28;20057;-68
2021/05/20 05:02:32;;;;;;;3.55;1.70;;;13.90;61.30;;;;;;5013485;28;20084;-68
2021/05/20 05:04:58;;;;;;;2.35;1.55;;;13.90;61.20;;;;;;5013438;28;20380;-68
2021/05/20 05:07:24;;;;;;;4.15;1.80;;;14.00;61.20;;;;;;5013322;28;20049;-68
2021/05/20 05:09:49;;;;;;;2.85;1.70;;;14.10;61.00;;;;;;5013182;28;20030;-68
2021/05/20 05:12:15;;;;;;;3.33;1.77;;;14.10;60.70;;;;;;5013323;28;20108;-68
2021/05/20 05:14:41;;;;;;;2.42;1.40;;;14.20;60.40;;;;;;5025150;28;20033;-68
2021/05/20 05:17:07;;;;;;;2.30;1.50;;;14.20;60.10;;;;;;5032991;28;20026;-68
2021/05/20 05:19:33;;;;;;;3.15;1.70;;;14.30;59.80;;;;;;5032136;28;20025;-68
2021/05/20 05:22:02;;;;;;;2.42;1.60;;;14.30;59.70;;;;;;5016438;28;20079;-68
2021/05/20 05:24:29;;;;;;;2.85;1.70;;;14.40;59.70;;;;;;5013288;28;20021;-68
2021/05/20 05:26:55;;;;;;;4.97;2.17;;;14.40;59.40;;;;;;5013440;28;20487;-68
2021/05/20 05:29:21;;;;;;;2.85;1.80;;;14.40;59.40;;;;;;5013224;28;20523;-68
2021/05/20 05:31:47;;;;;;;4.45;1.67;;;14.50;59.20;;;;;;5013188;28;20144;-68
2021/05/20 05:34:13;;;;;;;3.63;2.00;;;14.50;59.10;;;;;;5013813;28;20105;-68
2021/05/20 05:36:39;;;;;;;6.57;1.95;;;14.50;59.10;;;;;;5012801;28;20484;-68
2021/05/20 05:39:05;;;;;;;4.40;1.67;;;14.50;59.10;;;;;;5012698;28;20037;-68
2021/05/20 05:41:31;;;;;;;2.40;1.67;;;14.60;59.00;;;;;;5012764;28;20084;-68
2021/05/20 05:43:57;;;;;;;3.22;1.67;;;14.60;59.00;;;;;;5012748;28;20022;-68
2021/05/20 05:46:23;;;;;;;3.15;1.60;;;14.60;58.80;;;;;;5012699;28;20030;-69
2021/05/20 05:48:49;;;;;;;3.95;1.80;;;14.70;58.80;;;;;;5012722;28;20033;-68
2021/05/20 05:51:18;;;;;;;4.75;1.58;;;14.70;58.70;;;;;;5012917;28;20046;-68
2021/05/20 05:53:44;;;;;;;3.35;1.50;;;14.70;58.70;;;;;;5011474;28;20018;-68
2021/05/20 05:56:10;;;;;;;3.13;1.65;;;14.80;58.70;;;;;;5012907;28;20138;-68
2021/05/20 05:58:36;;;;;;;3.20;1.52;;;14.80;58.50;;;;;;5016787;28;20108;-68
2021/05/20 06:01:03;;;;;;;2.45;1.77;;;14.90;58.50;;;;;;5026277;28;20026;-68
2021/05/20 06:03:29;;;;;;;2.53;1.80;;;14.90;58.60;;;;;;5012313;28;20030;-68
2021/05/20 06:05:55;;;;;;;3.13;1.90;;;15.00;58.70;;;;;;5011608;28;20092;-68
2021/05/20 06:08:21;;;;;;;8.82;2.90;;;15.10;59.40;;;;;;5012603;28;20488;-68
2021/05/20 06:10:47;;;;;;;5.10;2.25;;;15.20;58.70;;;;;;5012638;28;20096;-68
2021/05/20 06:13:14;;;;;;;5.40;1.98;;;15.30;58.70;;;;;;5013377;28;20064;-68
2021/05/20 06:15:41;;;;;;;2.92;1.45;;;15.40;58.50;;;;;;5027665;28;20365;-68
2021/05/20 06:18:06;;;;;;;3.25;1.50;;;15.60;57.90;;;;;;5022075;28;20027;-68
2021/05/20 06:20:32;;;;;;;2.88;1.85;;;15.70;57.90;;;;;;5012650;28;20068;-68
2021/05/20 06:22:58;;;;;;;1.83;1.48;;;15.70;57.40;;;;;;5022332;28;20098;-68
2021/05/20 06:25:24;;;;;;;1.95;1.27;;;15.80;57.30;;;;;;5031193;28;20036;-68
2021/05/20 06:27:51;;;;;;;16.60;1.80;;;15.90;57.20;;;;;;5032315;28;20068;-68
2021/05/20 06:30:18;;;;;;;3.38;1.55;;;16.00;57.00;;;;;;5033657;28;20021;-68
2021/05/20 06:32:44;;;;;;;1.80;1.00;;;16.00;57.10;;;;;;5024955;28;20022;-68
2021/05/20 06:35:10;;;;;;;1.83;1.10;;;16.10;56.50;;;;;;5029544;28;20073;-68
2021/05/20 06:37:36;;;;;;;2.75;1.30;;;16.20;56.10;;;;;;5015044;28;20026;-68
2021/05/20 06:40:04;;;;;;;4.55;1.50;;;16.30;56.10;;;;;;5013488;28;20439;-68
2021/05/20 06:42:29;;;;;;;1.25;1.05;;;16.30;55.50;;;;;;5024041;28;20025;-68
2021/05/20 06:44:55;;;;;;;1.77;0.93;;;16.40;55.40;;;;;;5035837;28;20032;-68
2021/05/20 06:47:21;;;;;;;2.00;1.10;;;16.40;55.20;;;;;;5028459;28;20032;-68
2021/05/20 06:49:46;;;;;;;2.15;1.02;;;16.50;55.70;;;;;;5034469;28;20084;-68
2021/05/20 06:52:12;;;;;;;2.42;1.38;;;16.60;54.70;;;;;;5020002;28;20083;-69
2021/05/20 06:54:38;;;;;;;5.70;1.95;;;16.70;55.10;;;;;;5034218;28;20522;-68
2021/05/20 06:57:17;;;;;;;2.28;1.17;;;16.70;53.90;;;;;;5032738;28;20065;-68
2021/05/20 07:00:01;;;;;;;1.30;1.20;;;16.80;53.60;;;;;;5019393;28;20383;-68
2021/05/20 07:02:30;;;;;;;1.20;1.10;;;16.80;53.60;;;;;;5037174;28;20045;-68
2021/05/20 07:04:59;;;;;;;2.22;1.50;;;16.90;53.50;;;;;;5022795;28;20038;-68
2021/05/20 07:07:25;;;;;;;3.25;1.30;;;16.90;53.20;;;;;;5029890;28;20025;-68
2021/05/20 07:09:53;;;;;;;2.40;1.40;;;16.90;53.20;;;;;;5025380;28;20346;-68
2021/05/20 07:12:22;;;;;;;5.68;1.88;;;16.90;53.10;;;;;;5028145;28;20033;-68
2021/05/20 07:14:47;;;;;;;2.20;1.35;;;16.90;52.70;;;;;;5017825;28;20475;-68
2021/05/20 07:17:13;;;;;;;2.92;1.30;;;16.80;52.70;;;;;;5032220;28;20086;-69
2021/05/20 07:19:39;;;;;;;1.98;1.13;;;16.80;52.90;;;;;;5034992;28;20375;-68
2021/05/20 07:22:05;;;;;;;2.78;1.50;;;16.80;53.30;;;;;;5018051;28;20037;-68
2021/05/20 07:24:32;;;;;;;2.08;1.42;;;16.90;53.10;;;;;;5025119;28;20041;-68
2021/05/20 07:26:57;;;;;;;4.43;1.42;;;16.90;53.00;;;;;;5023279;28;20026;-68
2021/05/20 07:29:23;;;;;;;1.90;1.35;;;16.90;53.00;;;;;;5024991;28;20156;-68
2021/05/20 07:31:49;;;;;;;4.30;1.63;;;17.00;53.00;;;;;;5015053;28;20022;-68
2021/05/20 07:34:15;;;;;;;3.70;1.70;;;17.00;52.70;;;;;;5027657;28;20040;-68
2021/05/20 07:36:41;;;;;;;2.08;1.70;;;17.00;52.30;;;;;;5034618;28;20024;-69
2021/05/20 07:39:07;;;;;;;2.10;1.60;;;17.00;52.40;;;;;;5033361;28;20383;-68
2021/05/20 07:41:34;;;;;;;4.88;1.65;;;17.00;52.20;;;;;;5033681;28;20028;-68
2021/05/20 07:44:01;;;;;;;2.08;1.52;;;17.00;52.60;;;;;;5032759;28;20044;-68
2021/05/20 07:46:27;;;;;;;3.17;1.35;;;17.10;52.90;;;;;;5028072;28;20034;-68
2021/05/20 07:48:56;;;;;;;4.13;1.88;;;17.10;52.50;;;;;;5014665;28;20109;-69
2021/05/20 07:51:21;;;;;;;2.63;1.80;;;17.10;52.00;;;;;;5016485;28;20053;-65
2021/05/20 07:53:47;;;;;;;2.75;1.50;;;17.10;51.80;;;;;;5025387;28;20051;-64
2021/05/20 07:56:13;;;;;;;3.40;1.77;;;17.20;52.50;;;;;;5033298;28;20021;-64
2021/05/20 07:58:39;;;;;;;2.83;1.83;;;17.20;51.80;;;;;;5022258;28;20083;-65
2021/05/20 08:01:04;;;;;;;2.22;1.60;;;17.30;51.90;;;;;;5013374;28;20487;-65
2021/05/20 08:03:48;;;;;;;3.08;1.77;;;17.40;51.90;;;;;;5022231;28;20037;-64
2021/05/20 08:06:18;;;;;;;1.92;1.70;;;17.40;51.50;;;;;;5033241;28;20124;-65
2021/05/20 08:09:00;;;;;;;2.85;1.90;;;17.40;51.50;;;;;;5031882;28;20029;-65
2021/05/20 08:11:26;;;;;;;3.58;1.60;;;17.50;51.60;;;;;;5033165;28;20022;-65
2021/05/20 08:13:51;;;;;;;4.90;1.90;;;17.50;51.30;;;;;;5031700;28;20180;-64
2021/05/20 08:16:19;;;;;;;2.53;1.58;;;17.50;50.80;;;;;;5023206;28;20376;-65
2021/05/20 08:18:45;;;;;;;2.85;1.60;;;17.50;50.50;;;;;;5013193;28;20022;-64
2021/05/20 08:21:11;;;;;;;3.42;1.60;;;17.40;50.70;;;;;;5013150;28;20061;-65
2021/05/20 08:23:37;;;;;;;3.45;1.50;;;17.40;50.90;;;;;;5028539;28;20467;-65
2021/05/20 08:26:05;;;;;;;2.50;1.52;;;17.40;50.90;;;;;;5013039;28;20069;-65
2021/05/20 08:28:30;;;;;;;4.13;1.50;;;17.40;50.90;;;;;;5012891;28;20041;-65
2021/05/20 08:30:57;;;;;;;1.55;1.27;;;17.50;51.10;;;;;;5012904;28;20125;-65
2021/05/20 08:33:23;;;;;;;3.00;1.42;;;17.50;51.20;;;;;;5012898;28;20058;-65
2021/05/20 08:35:49;;;;;;;1.50;0.90;;;17.70;50.40;;;;;;5013067;28;20091;-65
2021/05/20 08:38:14;;;;;;;2.70;1.20;;;17.80;49.60;;;;;;5011834;28;20022;-65
2021/05/20 08:40:43;;;;;;;1.83;1.05;;;17.90;49.40;;;;;;5013063;28;20034;-65
2021/05/20 08:43:09;;;;;;;1.20;1.10;;;18.10;48.90;;;;;;5012832;28;20476;-65
2021/05/20 08:45:37;;;;;;;2.25;1.23;;;18.20;48.90;;;;;;5014030;28;20036;-65
2021/05/20 08:48:04;;;;;;;2.10;1.02;;;18.40;48.40;;;;;;5032576;28;20542;-65
2021/05/20 08:50:31;;;;;;;1.45;1.17;;;18.50;49.00;;;;;;5032214;28;20052;-65
2021/05/20 08:52:58;;;;;;;2.38;1.40;;;18.70;48.80;;;;;;5027462;28;20026;-64
2021/05/20 08:55:27;;;;;;;4.72;1.10;;;18.90;48.30;;;;;;5027981;28;20426;-65
2021/05/20 08:57:55;;;;;;;4.50;1.10;;;19.10;47.40;;;;;;5032373;28;20045;-64
2021/05/20 09:00:22;;;;;;;5.65;1.27;;;19.20;47.00;;;;;;5032233;28;20064;-65
2021/05/20 09:02:49;;;;;;;2.17;0.88;;;19.30;46.00;;;;;;5032230;28;20037;-64
2021/05/20 09:05:17;;;;;;;1.85;0.82;;;19.30;46.60;;;;;;5031822;28;20018;-65
2021/05/20 09:07:53;;;;;;;1.92;0.93;;;19.50;47.10;;;;;;5031348;28;20363;-65
2021/05/20 09:10:32;;;;;;;6.90;1.00;;;19.60;46.50;;;;;;5031562;28;20379;-65
2021/05/20 09:13:00;;;;;;;2.58;0.80;;;19.70;46.40;;;;;;5031905;28;20067;-65
2021/05/20 09:15:33;;;;;;;0.90;0.80;;;19.80;45.00;;;;;;5029726;28;20029;-65
2021/05/20 09:18:15;;;;;;;1.45;0.80;;;19.80;44.80;;;;;;5012652;28;20110;-65
2021/05/20 09:20:58;;;;;;;5.93;0.90;;;19.80;44.20;;;;;;5012119;28;20026;-65
2021/05/20 09:23:28;;;;;;;2.67;0.80;;;19.80;44.00;;;;;;5012068;28;20033;-65
2021/05/20 09:26:04;;;;;;;1.00;0.90;;;19.80;43.00;;;;;;5012107;28;20038;-65
2021/05/20 09:28:41;;;;;;;1.60;0.80;;;19.70;43.70;;;;;;5011953;28;20451;-65
2021/05/20 09:31:07;;;;;;;2.40;0.75;;;19.70;43.30;;;;;;5012255;28;20026;-65
2021/05/20 09:33:34;;;;;;;2.25;1.00;;;19.60;44.50;;;;;;5011930;28;20024;-65
2021/05/20 09:36:01;;;;;;;6.65;0.88;;;19.60;44.00;;;;;;5012001;28;20587;-65
2021/05/20 09:38:27;;;;;;;0.85;0.70;;;19.60;44.00;;;;;;5011962;28;20564;-65
2021/05/20 09:40:55;;;;;;;4.82;1.02;;;19.50;43.50;;;;;;5012238;28;20018;-65
2021/05/20 09:43:35;;;;;;;2.88;0.98;;;19.30;43.30;;;;;;5012103;28;20053;-65
2021/05/20 09:46:09;;;;;;;1.60;0.68;;;19.30;43.70;;;;;;5012173;28;20018;-65
2021/05/20 09:48:37;;;;;;;1.60;0.90;;;19.20;43.90;;;;;;5011959;28;20026;-65
2021/05/20 09:51:04;;;;;;;1.17;0.90;;;19.10;42.80;;;;;;5026769;28;20405;-65
2021/05/20 09:53:30;;;;;;;1.73;1.05;;;19.00;42.30;;;;;;5011970;28;20049;-65
2021/05/20 09:55:59;;;;;;;1.85;0.80;;;18.90;42.90;;;;;;5010560;28;20049;-65
2021/05/20 09:58:30;;;;;;;3.50;1.00;;;18.90;43.80;;;;;;5012037;28;20025;-65
2021/05/20 10:00:57;;;;;;;1.25;0.70;;;19.00;44.30;;;;;;5011424;28;20046;-65
2021/05/20 10:03:24;;;;;;;1.00;0.70;;;19.10;43.90;;;;;;5012611;28;20030;-65
2021/05/20 10:05:57;;;;;;;2.70;1.00;;;19.30;43.20;;;;;;5015604;28;20049;-65
2021/05/20 10:08:24;;;;;;;3.78;0.70;;;19.40;42.90;;;;;;5016496;28;20030;-65
2021/05/20 10:10:52;;;;;;;1.38;1.00;;;19.50;43.00;;;;;;5016581;28;20018;-65
2021/05/20 10:13:20;;;;;;;6.80;1.20;;;19.50;42.30;;;;;;5016123;28;20027;-65
2021/05/20 10:15:47;;;;;;;2.33;0.95;;;19.50;42.30;;;;;;5016850;28;20364;-65
2021/05/20 10:18:18;;;;;;;2.47;1.08;;;19.50;42.40;;;;;;5016445;28;20048;-65
2021/05/20 10:20:46;;;;;;;1.70;0.82;;;19.50;42.60;;;;;;5016496;28;20025;-65
2021/05/20 10:23:16;;;;;;;3.38;0.93;;;19.50;42.30;;;;;;5016341;28;20471;-65
2021/05/20 10:25:43;;;;;;;2.10;1.00;;;19.50;42.60;;;;;;5016286;28;20566;-65
2021/05/20 10:28:11;;;;;;;1.55;1.00;;;19.60;42.80;;;;;;5015984;28;20022;-65
2021/05/20 10:30:40;;;;;;;3.78;1.00;;;19.70;42.10;;;;;;5016206;28;20018;-65
2021/05/20 10:33:07;;;;;;;1.98;0.95;;;19.70;42.10;;;;;;5015686;28;20014;-65
2021/05/20 10:35:41;;;;;;;1.88;0.90;;;19.80;42.10;;;;;;5014658;28;20364;-65
2021/05/20 10:38:08;;;;;;;2.55;1.10;;;20.00;42.30;;;;;;5016061;28;20480;-68
2021/05/20 10:40:34;;;;;;;4.53;1.23;;;20.10;42.40;;;;;;5015800;28;20085;-65
2021/05/20 10:43:05;;;;;;;3.63;1.17;;;20.30;41.90;;;;;;5015718;28;20022;-65
2021/05/20 10:45:32;;;;;;;2.40;0.90;;;20.40;39.80;;;;;;5016058;28;20038;-65
2021/05/20 10:48:04;;;;;;;1.77;0.77;;;20.50;39.90;;;;;;5015680;28;20391;-65
2021/05/20 10:50:55;;;;;;;2.63;1.05;;;20.50;39.40;;;;;;5015654;28;20480;-65
2021/05/20 10:53:46;;;;;;;0.85;0.73;;;20.40;40.00;;;;;;5015842;28;20067;-64
2021/05/20 10:56:15;;;;;;;9.38;1.23;;;20.40;39.80;;;;;;5015530;28;20502;-65
2021/05/20 10:58:47;;;;;;;2.50;0.60;;;20.30;40.00;;;;;;5015552;28;20137;-64
2021/05/20 11:01:24;;;;;;;3.63;1.25;;;20.20;39.90;;;;;;5015506;28;20022;-65
2021/05/20 11:03:57;;;;;;;2.33;0.70;;;20.10;39.40;;;;;;5025848;28;20498;-65
2021/05/20 11:06:38;;;;;;;1.88;0.88;;;20.00;39.40;;;;;;5032737;28;20036;-67
2021/05/20 11:09:10;;;;;;;0.73;0.52;;;19.90;39.50;;;;;;5017124;28;20025;-65
2021/05/20 11:11:39;;;;;;;2.40;0.60;;;19.80;39.40;;;;;;5015228;28;20030;-65
2021/05/20 11:14:11;;;;;;;1.35;0.70;;;19.70;38.90;;;;;;5015296;28;20447;-65
2021/05/20 11:16:37;;;;;;;5.97;0.77;;;19.70;39.60;;;;;;5014392;28;20105;-65
2021/05/20 11:22:03;;;;;;;4.07;0.90;;;19.70;40.20;;;;;;5029682;28;20411;-68
2021/05/20 11:24:29;;;;;;;;;;;19.70;40.60;;;;;;5015814;28;20497;-69
2021/05/20 11:27:00;;;;;;;6.45;0.70;;;19.70;41.20;;;;;;5019489;28;19913;-69
2021/05/20 11:29:31;;;;;;;2.08;0.50;;;19.70;39.90;;;;;;5026651;28;20057;-69
2021/05/20 11:35:00;;;;;;;1.45;0.45;;;19.70;39.40;;;;;;5013645;28;20057;-68
2021/05/20 11:37:25;;;;;;;;;;;19.70;38.20;;;;;;5029910;28;20030;-69
2021/05/20 11:39:51;;;;;;;0.52;0.30;;;19.70;39.80;;;;;;5014985;28;19913;-69
2021/05/20 11:42:26;;;;;;;2.90;0.60;;;19.80;38.60;;;;;;5030018;28;20036;-68
2021/05/20 11:44:53;;;;;;;1.50;0.50;;;19.70;38.00;;;;;;5014526;28;20048;-68
2021/05/20 11:47:21;;;;;;;1.60;0.65;;;19.70;37.50;;;;;;5014295;28;20080;-68
2021/05/20 11:49:47;;;;;;;1.70;0.57;;;19.60;36.80;;;;;;5017944;28;20480;-68
2021/05/20 11:52:13;;;;;;;3.00;0.63;;;19.60;37.40;;;;;;5025874;28;20046;-68
2021/05/20 11:54:50;;;;;;;2.67;0.50;;;19.50;38.20;;;;;;5013206;28;20034;-69
2021/05/20 11:57:18;;;;;;;4.07;0.73;;;19.50;38.90;;;;;;5025683;28;20020;-69
2021/05/20 11:59:51;;;;;;;1.90;0.60;;;19.50;38.90;;;;;;5013210;28;20053;-69
2021/05/20 12:02:28;;;;;;;1.37;0.60;;;19.50;38.90;;;;;;5025462;28;20075;-69
2021/05/20 12:05:09;;;;;;;0.73;0.50;;;19.50;39.00;;;;;;5014399;28;20264;-69
2021/05/20 12:07:38;;;;;;;1.05;0.47;;;19.50;39.50;;;;;;5027303;28;20029;-69
2021/05/20 12:10:15;;;;;;;1.58;0.70;;;19.50;39.10;;;;;;5014388;28;20014;-69
2021/05/20 12:12:49;;;;;;;0.63;0.50;;;19.60;38.70;;;;;;5014272;28;20426;-69
2021/05/20 12:15:17;;;;;;;1.13;0.55;;;19.60;38.60;;;;;;5014497;28;20032;-70
2021/05/20 12:17:44;;;;;;;2.28;0.57;;;19.70;38.60;;;;;;5029958;28;20025;-69
2021/05/20 12:20:12;;;;;;;3.55;0.82;;;19.80;37.80;;;;;;5032666;28;20033;-69
2021/05/20 12:22:39;;;;;;;0.95;0.45;;;19.90;39.20;;;;;;5028188;28;20030;-69
2021/05/20 12:25:10;;;;;;;0.60;0.40;;;20.00;37.90;;;;;;5031752;28;20070;-69
2021/05/20 12:27:36;;;;;;;2.50;0.60;;;20.10;37.70;;;;;;5019494;28;20033;-65
2021/05/20 12:30:08;;;;;;;1.00;0.50;;;20.20;38.10;;;;;;5027011;28;20374;-69
2021/05/20 12:32:45;;;;;;;1.50;0.40;;;20.30;37.60;;;;;;5032844;28;20021;-68
2021/05/20 12:35:31;;;;;;;2.28;0.60;;;20.50;37.20;;;;;;5016520;28;20610;-69
2021/05/20 12:38:12;;;;;;;0.65;0.52;;;20.50;36.40;;;;;;5012506;28;20168;-69
2021/05/20 12:40:41;;;;;;;5.20;0.63;;;20.50;36.20;;;;;;5014513;28;20058;-70
2021/05/20 12:43:21;;;;;;;1.08;0.50;;;20.50;36.30;;;;;;5018906;28;20017;-70
2021/05/20 12:46:00;;;;;;;4.80;0.85;;;20.50;36.60;;;;;;5021616;28;20029;-70
2021/05/20 12:48:26;;;;;;;1.70;0.52;;;20.60;37.00;;;;;;5015891;28;20037;-70
2021/05/20 12:50:53;;;;;;;0.90;0.50;;;20.70;37.00;;;;;;5011164;28;20038;-70
2021/05/20 12:53:43;;;;;;;0.60;0.60;;;20.70;37.30;;;;;;5012716;28;20030;-70
2021/05/20 12:56:27;;;;;;;4.53;0.98;;;20.70;37.20;;;;;;5012691;28;20392;-69
2021/05/20 12:59:04;;;;;;;3.03;0.97;;;20.90;37.20;;;;;;5012720;28;20125;-70